sensor_id;sensor_type;location;lat;lon;timestamp;temperature;humidity
29341;DHT22;16337;59.536;13.468;2023-04-24T00:00:17;4.40;99.90
29341;DHT22;16337;59.536;13.468;2023-04-24T00:02:44;4.40;99.90
29341;DHT22;16337;59.536;13.468;2023-04-24T00:05:17;4.30;99.90
29341;DHT22;16337;59.536;13.468;2023-04-24T00:07:44;4.30;99.90
29341;DHT22;16337;59.536;13.468;2023-04-24T00:10:11;4.30;99.90
29341;DHT22;16337;59.536;13.468;2023-04-24T00:12:37;4.20;99.90
29341;DHT22;16337;59.536;13.468;2023-04-24T00:15:04;4.20;99.90
29341;DHT22;16337;59.536;13.468;2023-04-24T00:17:30;4.20;99.90
29341;DHT22;16337;59.536;13.468;2023-04-24T00:19:57;4.20;99.90
29341;DHT22;16337;59.536;13.468;2023-04-24T00:22:27;4.20;99.90
29341;DHT22;16337;59.536;13.468;2023-04-24T00:24:53;4.20;99.90
29341;DHT22;16337;59.536;13.468;2023-04-24T00:27:19;4.30;99.90
29341;DHT22;16337;59.536;13.468;2023-04-24T00:29:45;4.30;99.90
29341;DHT22;16337;59.536;13.468;2023-04-24T00:32:11;4.30;99.90
29341;DHT22;16337;59.536;13.468;2023-04-24T00:34:37;4.20;99.90
29341;DHT22;16337;59.536;13.468;2023-04-24T00:37:03;4.20;99.90
29341;DHT22;16337;59.536;13.468;2023-04-24T00:39:28;4.20;99.90
29341;DHT22;16337;59.536;13.468;2023-04-24T00:41:54;4.20;99.90
29341;DHT22;16337;59.536;13.468;2023-04-24T00:44:20;4.20;99.90
29341;DHT22;16337;59.536;13.468;2023-04-24T00:46:47;4.20;99.90
29341;DHT22;16337;59.536;13.468;2023-04-24T00:49:18;4.20;99.90
29341;DHT22;16337;59.536;13.468;2023-04-24T00:51:44;4.20;99.90
29341;DHT22;16337;59.536;13.468;2023-04-24T00:54:11;4.20;99.90
29341;DHT22;16337;59.536;13.468;2023-04-24T00:56:37;4.10;99.90
29341;DHT22;16337;59.536;13.468;2023-04-24T00:59:03;4.10;99.90
29341;DHT22;16337;59.536;13.468;2023-04-24T01:01:30;4.00;99.90
29341;DHT22;16337;59.536;13.468;2023-04-24T01:03:57;4.10;99.90
29341;DHT22;16337;59.536;13.468;2023-04-24T01:06:23;4.10;99.90
29341;DHT22;16337;59.536;13.468;2023-04-24T01:08:53;4.10;99.90
29341;DHT22;16337;59.536;13.468;2023-04-24T01:11:21;4.10;99.90
29341;DHT22;16337;59.536;13.468;2023-04-24T01:13:48;4.10;99.90
29341;DHT22;16337;59.536;13.468;2023-04-24T01:16:18;4.10;99.90
29341;DHT22;16337;59.536;13.468;2023-04-24T01:18:47;4.00;99.90
29341;DHT22;16337;59.536;13.468;2023-04-24T01:21:18;4.00;99.90
29341;DHT22;16337;59.536;13.468;2023-04-24T01:23:47;4.00;99.90
29341;DHT22;16337;59.536;13.468;2023-04-24T01:26:18;4.00;99.90
29341;DHT22;16337;59.536;13.468;2023-04-24T01:28:46;3.90;99.90
29341;DHT22;16337;59.536;13.468;2023-04-24T01:31:14;3.90;99.90
29341;DHT22;16337;59.536;13.468;2023-04-24T01:33:41;3.90;99.90
29341;DHT22;16337;59.536;13.468;2023-04-24T01:36:09;3.90;99.90
29341;DHT22;16337;59.536;13.468;2023-04-24T01:38:35;3.90;99.90
29341;DHT22;16337;59.536;13.468;2023-04-24T01:41:02;3.90;99.90
29341;DHT22;16337;59.536;13.468;2023-04-24T01:43:31;3.90;99.90
29341;DHT22;16337;59.536;13.468;2023-04-24T01:45:57;3.90;99.90
29341;DHT22;16337;59.536;13.468;2023-04-24T01:48:23;3.90;99.90
29341;DHT22;16337;59.536;13.468;2023-04-24T01:50:49;3.90;99.90
29341;DHT22;16337;59.536;13.468;2023-04-24T01:53:17;3.90;99.90
29341;DHT22;16337;59.536;13.468;2023-04-24T01:55:43;3.90;99.90
29341;DHT22;16337;59.536;13.468;2023-04-24T01:58:09;3.90;99.90
29341;DHT22;16337;59.536;13.468;2023-04-24T02:00:35;3.90;99.90
29341;DHT22;16337;59.536;13.468;2023-04-24T02:03:01;3.90;99.90
29341;DHT22;16337;59.536;13.468;2023-04-24T02:05:27;3.90;99.90
29341;DHT22;16337;59.536;13.468;2023-04-24T02:07:53;3.90;99.90
29341;DHT22;16337;59.536;13.468;2023-04-24T02:10:19;3.90;99.90
29341;DHT22;16337;59.536;13.468;2023-04-24T02:12:44;3.90;99.90
29341;DHT22;16337;59.536;13.468;2023-04-24T02:15:10;3.80;99.90
29341;DHT22;16337;59.536;13.468;2023-04-24T02:17:37;3.80;99.90
29341;DHT22;16337;59.536;13.468;2023-04-24T02:20:04;3.80;99.90
29341;DHT22;16337;59.536;13.468;2023-04-24T02:22:30;3.80;99.90
29341;DHT22;16337;59.536;13.468;2023-04-24T02:24:55;3.80;99.90
29341;DHT22;16337;59.536;13.468;2023-04-24T02:27:21;3.80;99.90
29341;DHT22;16337;59.536;13.468;2023-04-24T02:29:47;3.80;99.90
29341;DHT22;16337;59.536;13.468;2023-04-24T02:32:13;3.80;99.90
29341;DHT22;16337;59.536;13.468;2023-04-24T02:34:40;3.80;99.90
29341;DHT22;16337;59.536;13.468;2023-04-24T02:37:06;3.80;99.90
29341;DHT22;16337;59.536;13.468;2023-04-24T02:39:32;3.80;99.90
29341;DHT22;16337;59.536;13.468;2023-04-24T02:41:57;3.90;99.90
29341;DHT22;16337;59.536;13.468;2023-04-24T02:44:23;3.90;99.90
29341;DHT22;16337;59.536;13.468;2023-04-24T02:46:49;3.90;99.90
29341;DHT22;16337;59.536;13.468;2023-04-24T02:49:15;3.90;99.90
29341;DHT22;16337;59.536;13.468;2023-04-24T02:51:41;3.90;99.90
29341;DHT22;16337;59.536;13.468;2023-04-24T02:54:09;3.90;99.90
29341;DHT22;16337;59.536;13.468;2023-04-24T02:56:35;4.00;99.90
29341;DHT22;16337;59.536;13.468;2023-04-24T02:59:01;3.90;99.90
29341;DHT22;16337;59.536;13.468;2023-04-24T03:01:27;4.00;99.90
29341;DHT22;16337;59.536;13.468;2023-04-24T03:03:53;4.00;99.90
29341;DHT22;16337;59.536;13.468;2023-04-24T03:06:21;3.90;99.90
29341;DHT22;16337;59.536;13.468;2023-04-24T03:08:47;3.90;99.90
29341;DHT22;16337;59.536;13.468;2023-04-24T03:11:13;3.90;99.90
29341;DHT22;16337;59.536;13.468;2023-04-24T03:13:41;3.90;99.90
29341;DHT22;16337;59.536;13.468;2023-04-24T03:16:07;3.90;99.90
29341;DHT22;16337;59.536;13.468;2023-04-24T03:18:32;3.90;99.90
29341;DHT22;16337;59.536;13.468;2023-04-24T03:20:58;3.80;99.90
29341;DHT22;16337;59.536;13.468;2023-04-24T03:23:24;3.80;99.90
29341;DHT22;16337;59.536;13.468;2023-04-24T03:25:50;3.80;99.90
29341;DHT22;16337;59.536;13.468;2023-04-24T03:28:19;3.80;99.90
29341;DHT22;16337;59.536;13.468;2023-04-24T03:30:45;3.80;99.90
29341;DHT22;16337;59.536;13.468;2023-04-24T03:33:13;3.80;99.90
29341;DHT22;16337;59.536;13.468;2023-04-24T03:35:39;3.80;99.90
29341;DHT22;16337;59.536;13.468;2023-04-24T03:38:05;3.80;99.90
29341;DHT22;16337;59.536;13.468;2023-04-24T03:40:31;3.80;99.90
29341;DHT22;16337;59.536;13.468;2023-04-24T03:42:58;3.80;99.90
29341;DHT22;16337;59.536;13.468;2023-04-24T03:45:24;3.80;99.90
29341;DHT22;16337;59.536;13.468;2023-04-24T03:47:50;3.80;99.90
29341;DHT22;16337;59.536;13.468;2023-04-24T03:50:16;3.80;99.90
29341;DHT22;16337;59.536;13.468;2023-04-24T03:52:42;3.80;99.90
29341;DHT22;16337;59.536;13.468;2023-04-24T03:55:07;3.90;99.90
29341;DHT22;16337;59.536;13.468;2023-04-24T03:57:33;3.90;99.90
29341;DHT22;16337;59.536;13.468;2023-04-24T03:59:59;4.00;99.90
29341;DHT22;16337;59.536;13.468;2023-04-24T04:02:25;4.00;99.90
29341;DHT22;16337;59.536;13.468;2023-04-24T04:04:51;4.00;99.90
29341;DHT22;16337;59.536;13.468;2023-04-24T04:07:16;4.00;99.90
29341;DHT22;16337;59.536;13.468;2023-04-24T04:09:42;4.10;99.90
29341;DHT22;16337;59.536;13.468;2023-04-24T04:12:08;4.10;99.90
29341;DHT22;16337;59.536;13.468;2023-04-24T04:14:34;4.10;99.90
29341;DHT22;16337;59.536;13.468;2023-04-24T04:17:00;4.10;99.90
29341;DHT22;16337;59.536;13.468;2023-04-24T04:19:26;4.10;99.90
29341;DHT22;16337;59.536;13.468;2023-04-24T04:21:51;4.20;99.90
29341;DHT22;16337;59.536;13.468;2023-04-24T04:24:19;4.10;99.90
29341;DHT22;16337;59.536;13.468;2023-04-24T04:26:52;4.20;99.90
29341;DHT22;16337;59.536;13.468;2023-04-24T04:29:18;4.10;99.90
29341;DHT22;16337;59.536;13.468;2023-04-24T04:31:48;4.20;99.90
29341;DHT22;16337;59.536;13.468;2023-04-24T04:34:13;4.10;99.90
29341;DHT22;16337;59.536;13.468;2023-04-24T04:36:40;4.10;99.90
29341;DHT22;16337;59.536;13.468;2023-04-24T04:39:06;4.10;99.90
29341;DHT22;16337;59.536;13.468;2023-04-24T04:41:32;4.10;99.90
29341;DHT22;16337;59.536;13.468;2023-04-24T04:44:01;4.10;99.90
29341;DHT22;16337;59.536;13.468;2023-04-24T04:46:30;4.10;99.90
29341;DHT22;16337;59.536;13.468;2023-04-24T04:48:58;4.10;99.90
29341;DHT22;16337;59.536;13.468;2023-04-24T04:51:25;4.10;99.90
29341;DHT22;16337;59.536;13.468;2023-04-24T04:53:50;4.10;99.90
29341;DHT22;16337;59.536;13.468;2023-04-24T04:56:19;4.10;99.90
29341;DHT22;16337;59.536;13.468;2023-04-24T04:58:45;4.10;99.90
29341;DHT22;16337;59.536;13.468;2023-04-24T05:01:11;4.20;99.90
29341;DHT22;16337;59.536;13.468;2023-04-24T05:03:36;4.10;99.90
29341;DHT22;16337;59.536;13.468;2023-04-24T05:06:02;4.10;99.90
29341;DHT22;16337;59.536;13.468;2023-04-24T05:08:28;4.10;99.90
29341;DHT22;16337;59.536;13.468;2023-04-24T05:10:54;4.10;99.90
29341;DHT22;16337;59.536;13.468;2023-04-24T05:13:21;4.10;99.90
29341;DHT22;16337;59.536;13.468;2023-04-24T05:15:47;4.10;99.90
29341;DHT22;16337;59.536;13.468;2023-04-24T05:18:12;4.10;99.90
29341;DHT22;16337;59.536;13.468;2023-04-24T05:20:40;4.00;99.90
29341;DHT22;16337;59.536;13.468;2023-04-24T05:23:12;4.10;99.90
29341;DHT22;16337;59.536;13.468;2023-04-24T05:25:37;4.10;99.90
29341;DHT22;16337;59.536;13.468;2023-04-24T05:28:05;4.10;99.90
29341;DHT22;16337;59.536;13.468;2023-04-24T05:30:34;4.10;99.90
29341;DHT22;16337;59.536;13.468;2023-04-24T05:32:59;4.20;99.90
29341;DHT22;16337;59.536;13.468;2023-04-24T05:35:25;4.10;99.90
29341;DHT22;16337;59.536;13.468;2023-04-24T05:37:51;4.10;99.90
29341;DHT22;16337;59.536;13.468;2023-04-24T05:40:20;4.20;99.90
29341;DHT22;16337;59.536;13.468;2023-04-24T05:42:45;4.10;99.90
29341;DHT22;16337;59.536;13.468;2023-04-24T05:45:11;4.20;99.90
29341;DHT22;16337;59.536;13.468;2023-04-24T05:47:42;4.20;99.90
29341;DHT22;16337;59.536;13.468;2023-04-24T05:50:09;4.20;99.90
29341;DHT22;16337;59.536;13.468;2023-04-24T05:52:37;4.20;99.90
29341;DHT22;16337;59.536;13.468;2023-04-24T05:55:02;4.20;99.90
29341;DHT22;16337;59.536;13.468;2023-04-24T05:57:28;4.30;99.90
29341;DHT22;16337;59.536;13.468;2023-04-24T05:59:54;4.30;99.90
29341;DHT22;16337;59.536;13.468;2023-04-24T06:02:20;4.30;99.90
29341;DHT22;16337;59.536;13.468;2023-04-24T06:04:46;4.20;99.90
29341;DHT22;16337;59.536;13.468;2023-04-24T06:07:12;4.20;99.90
29341;DHT22;16337;59.536;13.468;2023-04-24T06:09:37;4.30;99.90
29341;DHT22;16337;59.536;13.468;2023-04-24T06:12:03;4.30;99.90
29341;DHT22;16337;59.536;13.468;2023-04-24T06:14:29;4.30;99.90
29341;DHT22;16337;59.536;13.468;2023-04-24T06:16:55;4.30;99.90
29341;DHT22;16337;59.536;13.468;2023-04-24T06:19:21;4.40;99.90
29341;DHT22;16337;59.536;13.468;2023-04-24T06:21:46;4.40;99.90
29341;DHT22;16337;59.536;13.468;2023-04-24T06:24:14;4.50;99.90
29341;DHT22;16337;59.536;13.468;2023-04-24T06:26:43;4.50;99.90
29341;DHT22;16337;59.536;13.468;2023-04-24T06:29:09;4.60;99.90
29341;DHT22;16337;59.536;13.468;2023-04-24T06:31:34;4.70;99.90
29341;DHT22;16337;59.536;13.468;2023-04-24T06:34:03;4.80;99.90
29341;DHT22;16337;59.536;13.468;2023-04-24T06:36:29;4.90;99.90
29341;DHT22;16337;59.536;13.468;2023-04-24T06:38:56;5.00;99.90
29341;DHT22;16337;59.536;13.468;2023-04-24T06:41:25;5.10;99.90
29341;DHT22;16337;59.536;13.468;2023-04-24T06:43:51;5.20;99.90
29341;DHT22;16337;59.536;13.468;2023-04-24T06:46:17;5.30;99.90
29341;DHT22;16337;59.536;13.468;2023-04-24T06:48:43;5.30;99.90
29341;DHT22;16337;59.536;13.468;2023-04-24T06:51:09;5.40;99.90
29341;DHT22;16337;59.536;13.468;2023-04-24T06:53:35;5.30;99.90
29341;DHT22;16337;59.536;13.468;2023-04-24T06:56:04;5.40;99.90
29341;DHT22;16337;59.536;13.468;2023-04-24T06:58:30;5.50;99.90
29341;DHT22;16337;59.536;13.468;2023-04-24T07:00:56;5.60;99.90
29341;DHT22;16337;59.536;13.468;2023-04-24T07:03:22;5.70;99.90
29341;DHT22;16337;59.536;13.468;2023-04-24T07:05:48;5.80;99.90
29341;DHT22;16337;59.536;13.468;2023-04-24T07:08:14;5.80;99.90
29341;DHT22;16337;59.536;13.468;2023-04-24T07:10:43;5.80;99.90
29341;DHT22;16337;59.536;13.468;2023-04-24T07:13:09;5.70;99.90
29341;DHT22;16337;59.536;13.468;2023-04-24T07:15:35;5.70;99.90
29341;DHT22;16337;59.536;13.468;2023-04-24T07:18:00;5.60;99.90
29341;DHT22;16337;59.536;13.468;2023-04-24T07:20:26;5.60;99.90
29341;DHT22;16337;59.536;13.468;2023-04-24T07:22:55;5.60;99.90
29341;DHT22;16337;59.536;13.468;2023-04-24T07:25:20;5.60;99.90
29341;DHT22;16337;59.536;13.468;2023-04-24T07:27:46;5.70;99.90
29341;DHT22;16337;59.536;13.468;2023-04-24T07:30:14;5.70;99.90
29341;DHT22;16337;59.536;13.468;2023-04-24T07:32:43;5.70;99.90
29341;DHT22;16337;59.536;13.468;2023-04-24T07:35:09;5.70;99.90
29341;DHT22;16337;59.536;13.468;2023-04-24T07:37:35;5.70;99.90
29341;DHT22;16337;59.536;13.468;2023-04-24T07:40:01;5.80;99.90
29341;DHT22;16337;59.536;13.468;2023-04-24T07:42:28;5.80;99.90
29341;DHT22;16337;59.536;13.468;2023-04-24T07:44:55;6.00;99.90
29341;DHT22;16337;59.536;13.468;2023-04-24T07:47:21;6.10;99.90
29341;DHT22;16337;59.536;13.468;2023-04-24T07:49:47;6.20;99.90
29341;DHT22;16337;59.536;13.468;2023-04-24T07:52:16;6.20;99.90
29341;DHT22;16337;59.536;13.468;2023-04-24T07:54:41;6.10;99.90
29341;DHT22;16337;59.536;13.468;2023-04-24T07:57:08;6.00;99.90
29341;DHT22;16337;59.536;13.468;2023-04-24T07:59:34;6.10;99.90
29341;DHT22;16337;59.536;13.468;2023-04-24T08:01:59;6.20;99.90
29341;DHT22;16337;59.536;13.468;2023-04-24T08:04:27;6.10;99.90
29341;DHT22;16337;59.536;13.468;2023-04-24T08:06:55;6.10;99.90
29341;DHT22;16337;59.536;13.468;2023-04-24T08:09:21;6.00;99.90
29341;DHT22;16337;59.536;13.468;2023-04-24T08:11:47;6.10;99.90
29341;DHT22;16337;59.536;13.468;2023-04-24T08:14:12;6.20;99.90
29341;DHT22;16337;59.536;13.468;2023-04-24T08:16:38;6.20;99.90
29341;DHT22;16337;59.536;13.468;2023-04-24T08:19:04;6.20;99.90
29341;DHT22;16337;59.536;13.468;2023-04-24T08:21:30;6.30;99.90
29341;DHT22;16337;59.536;13.468;2023-04-24T08:23:56;6.30;99.90
29341;DHT22;16337;59.536;13.468;2023-04-24T08:26:21;6.30;99.90
29341;DHT22;16337;59.536;13.468;2023-04-24T08:28:47;6.20;99.90
29341;DHT22;16337;59.536;13.468;2023-04-24T08:31:13;6.20;99.90
29341;DHT22;16337;59.536;13.468;2023-04-24T08:33:39;6.10;99.90
29341;DHT22;16337;59.536;13.468;2023-04-24T08:36:06;6.00;99.90
29341;DHT22;16337;59.536;13.468;2023-04-24T08:38:33;6.10;99.90
29341;DHT22;16337;59.536;13.468;2023-04-24T08:41:01;6.20;99.90
29341;DHT22;16337;59.536;13.468;2023-04-24T08:43:27;6.30;99.90
29341;DHT22;16337;59.536;13.468;2023-04-24T08:45:56;6.20;99.90
29341;DHT22;16337;59.536;13.468;2023-04-24T08:48:22;6.20;99.90
29341;DHT22;16337;59.536;13.468;2023-04-24T08:50:50;6.20;99.90
29341;DHT22;16337;59.536;13.468;2023-04-24T08:53:19;6.20;99.90
29341;DHT22;16337;59.536;13.468;2023-04-24T08:55:47;6.10;99.90
29341;DHT22;16337;59.536;13.468;2023-04-24T08:58:14;6.20;99.90
29341;DHT22;16337;59.536;13.468;2023-04-24T09:00:40;6.20;99.90
29341;DHT22;16337;59.536;13.468;2023-04-24T09:03:16;6.40;99.90
29341;DHT22;16337;59.536;13.468;2023-04-24T09:05:43;6.40;99.90
29341;DHT22;16337;59.536;13.468;2023-04-24T09:08:14;6.40;99.90
29341;DHT22;16337;59.536;13.468;2023-04-24T09:10:41;6.50;99.90
29341;DHT22;16337;59.536;13.468;2023-04-24T09:13:07;6.50;99.90
29341;DHT22;16337;59.536;13.468;2023-04-24T09:15:37;6.50;99.90
29341;DHT22;16337;59.536;13.468;2023-04-24T09:18:04;6.60;99.90
29341;DHT22;16337;59.536;13.468;2023-04-24T09:20:33;6.60;99.90
29341;DHT22;16337;59.536;13.468;2023-04-24T09:23:01;6.50;99.90
29341;DHT22;16337;59.536;13.468;2023-04-24T09:25:34;6.50;99.90
29341;DHT22;16337;59.536;13.468;2023-04-24T09:28:04;6.60;99.90
29341;DHT22;16337;59.536;13.468;2023-04-24T09:30:32;6.60;99.90
29341;DHT22;16337;59.536;13.468;2023-04-24T09:33:13;6.60;99.90
29341;DHT22;16337;59.536;13.468;2023-04-24T09:35:50;6.70;99.90
29341;DHT22;16337;59.536;13.468;2023-04-24T09:38:17;6.70;99.90
29341;DHT22;16337;59.536;13.468;2023-04-24T09:40:43;6.70;99.90
29341;DHT22;16337;59.536;13.468;2023-04-24T09:43:12;6.60;99.90
29341;DHT22;16337;59.536;13.468;2023-04-24T09:45:39;6.70;99.90
29341;DHT22;16337;59.536;13.468;2023-04-24T09:48:08;6.80;99.90
29341;DHT22;16337;59.536;13.468;2023-04-24T09:50:49;6.80;99.90
29341;DHT22;16337;59.536;13.468;2023-04-24T09:53:24;6.90;99.90
29341;DHT22;16337;59.536;13.468;2023-04-24T09:55:49;7.00;99.90
29341;DHT22;16337;59.536;13.468;2023-04-24T09:58:15;6.90;99.90
29341;DHT22;16337;59.536;13.468;2023-04-24T10:00:41;7.00;99.90
29341;DHT22;16337;59.536;13.468;2023-04-24T10:03:07;7.00;99.90
29341;DHT22;16337;59.536;13.468;2023-04-24T10:05:35;6.90;99.90
29341;DHT22;16337;59.536;13.468;2023-04-24T10:10:33;6.80;99.90
29341;DHT22;16337;59.536;13.468;2023-04-24T10:12:59;6.90;99.90
29341;DHT22;16337;59.536;13.468;2023-04-24T10:15:26;7.00;99.90
29341;DHT22;16337;59.536;13.468;2023-04-24T10:17:52;7.00;99.90
29341;DHT22;16337;59.536;13.468;2023-04-24T10:20:26;7.00;99.90
29341;DHT22;16337;59.536;13.468;2023-04-24T10:22:53;7.10;99.90
29341;DHT22;16337;59.536;13.468;2023-04-24T10:25:30;7.10;99.90
29341;DHT22;16337;59.536;13.468;2023-04-24T10:27:57;7.00;99.90
29341;DHT22;16337;59.536;13.468;2023-04-24T10:30:26;7.00;99.90
29341;DHT22;16337;59.536;13.468;2023-04-24T10:32:53;6.90;99.90
29341;DHT22;16337;59.536;13.468;2023-04-24T10:35:19;7.00;99.90
29341;DHT22;16337;59.536;13.468;2023-04-24T10:38:09;6.80;99.90
29341;DHT22;16337;59.536;13.468;2023-04-24T10:40:36;6.80;99.90
29341;DHT22;16337;59.536;13.468;2023-04-24T10:43:03;6.80;99.90
29341;DHT22;16337;59.536;13.468;2023-04-24T10:45:34;6.90;99.90
29341;DHT22;16337;59.536;13.468;2023-04-24T10:48:04;6.90;99.90
29341;DHT22;16337;59.536;13.468;2023-04-24T10:50:53;6.90;99.90
29341;DHT22;16337;59.536;13.468;2023-04-24T10:53:29;6.90;99.90
29341;DHT22;16337;59.536;13.468;2023-04-24T10:56:09;6.90;99.90
29341;DHT22;16337;59.536;13.468;2023-04-24T10:58:59;6.80;99.90
29341;DHT22;16337;59.536;13.468;2023-04-24T11:01:32;6.90;99.90
29341;DHT22;16337;59.536;13.468;2023-04-24T11:04:00;6.80;99.90
29341;DHT22;16337;59.536;13.468;2023-04-24T11:06:30;6.80;99.90
29341;DHT22;16337;59.536;13.468;2023-04-24T11:09:10;6.70;99.90
29341;DHT22;16337;59.536;13.468;2023-04-24T11:11:38;6.60;99.90
29341;DHT22;16337;59.536;13.468;2023-04-24T11:14:10;6.60;99.90
29341;DHT22;16337;59.536;13.468;2023-04-24T11:16:45;6.60;99.90
29341;DHT22;16337;59.536;13.468;2023-04-24T11:27:05;6.70;99.90
29341;DHT22;16337;59.536;13.468;2023-04-24T11:35:12;6.90;99.90
29341;DHT22;16337;59.536;13.468;2023-04-24T11:37:40;6.90;99.90
29341;DHT22;16337;59.536;13.468;2023-04-24T11:40:16;6.90;99.90
29341;DHT22;16337;59.536;13.468;2023-04-24T11:42:44;7.00;99.90
29341;DHT22;16337;59.536;13.468;2023-04-24T11:45:14;6.90;99.90
29341;DHT22;16337;59.536;13.468;2023-04-24T11:47:40;6.90;99.90
29341;DHT22;16337;59.536;13.468;2023-04-24T11:50:11;7.00;99.90
29341;DHT22;16337;59.536;13.468;2023-04-24T11:52:39;7.10;99.90
29341;DHT22;16337;59.536;13.468;2023-04-24T11:57:48;7.10;99.90
29341;DHT22;16337;59.536;13.468;2023-04-24T12:00:20;7.10;99.90
29341;DHT22;16337;59.536;13.468;2023-04-24T12:02:49;7.00;99.90
29341;DHT22;16337;59.536;13.468;2023-04-24T12:05:26;6.90;99.90
29341;DHT22;16337;59.536;13.468;2023-04-24T12:07:53;7.00;99.90
29341;DHT22;16337;59.536;13.468;2023-04-24T12:10:23;7.00;99.90
29341;DHT22;16337;59.536;13.468;2023-04-24T12:12:53;7.00;99.90
29341;DHT22;16337;59.536;13.468;2023-04-24T12:15:20;7.00;99.90
29341;DHT22;16337;59.536;13.468;2023-04-24T12:17:46;7.20;99.90
29341;DHT22;16337;59.536;13.468;2023-04-24T12:20:15;7.30;99.90
29341;DHT22;16337;59.536;13.468;2023-04-24T12:22:55;7.30;99.90
29341;DHT22;16337;59.536;13.468;2023-04-24T12:25:39;7.30;99.90
29341;DHT22;16337;59.536;13.468;2023-04-24T12:28:11;7.40;99.90
29341;DHT22;16337;59.536;13.468;2023-04-24T12:30:47;7.50;99.90
29341;DHT22;16337;59.536;13.468;2023-04-24T12:33:20;7.40;99.90
29341;DHT22;16337;59.536;13.468;2023-04-24T12:35:47;7.20;99.90
29341;DHT22;16337;59.536;13.468;2023-04-24T12:38:16;7.30;99.90
29341;DHT22;16337;59.536;13.468;2023-04-24T12:41:08;7.20;99.90
29341;DHT22;16337;59.536;13.468;2023-04-24T12:43:33;7.10;99.90
29341;DHT22;16337;59.536;13.468;2023-04-24T12:45:59;7.20;99.90
29341;DHT22;16337;59.536;13.468;2023-04-24T12:48:28;7.30;99.90
29341;DHT22;16337;59.536;13.468;2023-04-24T12:50:56;7.20;99.90
29341;DHT22;16337;59.536;13.468;2023-04-24T12:53:22;7.20;99.90
29341;DHT22;16337;59.536;13.468;2023-04-24T12:55:48;7.20;99.90
29341;DHT22;16337;59.536;13.468;2023-04-24T12:58:21;7.10;99.90
29341;DHT22;16337;59.536;13.468;2023-04-24T13:00:47;7.20;99.90
29341;DHT22;16337;59.536;13.468;2023-04-24T13:03:13;7.10;99.90
29341;DHT22;16337;59.536;13.468;2023-04-24T13:05:40;7.10;99.90
29341;DHT22;16337;59.536;13.468;2023-04-24T13:08:06;7.00;99.90
29341;DHT22;16337;59.536;13.468;2023-04-24T13:10:31;7.00;99.90
29341;DHT22;16337;59.536;13.468;2023-04-24T13:12:57;7.00;99.90
29341;DHT22;16337;59.536;13.468;2023-04-24T13:15:26;7.00;99.90
29341;DHT22;16337;59.536;13.468;2023-04-24T13:17:52;7.00;99.90
29341;DHT22;16337;59.536;13.468;2023-04-24T13:20:18;6.90;99.90
29341;DHT22;16337;59.536;13.468;2023-04-24T13:22:43;6.90;99.90
29341;DHT22;16337;59.536;13.468;2023-04-24T13:25:09;6.80;99.90
29341;DHT22;16337;59.536;13.468;2023-04-24T13:30:02;6.70;99.90
29341;DHT22;16337;59.536;13.468;2023-04-24T13:32:28;6.70;99.90
29341;DHT22;16337;59.536;13.468;2023-04-24T13:34:54;6.70;99.90
29341;DHT22;16337;59.536;13.468;2023-04-24T13:37:20;6.80;99.90
29341;DHT22;16337;59.536;13.468;2023-04-24T13:39:46;6.80;99.90
29341;DHT22;16337;59.536;13.468;2023-04-24T13:42:12;6.60;99.90
29341;DHT22;16337;59.536;13.468;2023-04-24T13:44:38;6.60;99.90
29341;DHT22;16337;59.536;13.468;2023-04-24T13:47:03;6.50;99.90
29341;DHT22;16337;59.536;13.468;2023-04-24T13:49:29;6.50;99.90
29341;DHT22;16337;59.536;13.468;2023-04-24T13:51:58;6.50;99.90
29341;DHT22;16337;59.536;13.468;2023-04-24T13:54:23;6.50;99.90
29341;DHT22;16337;59.536;13.468;2023-04-24T13:56:51;6.50;99.90
29341;DHT22;16337;59.536;13.468;2023-04-24T13:59:19;6.40;99.90
29341;DHT22;16337;59.536;13.468;2023-04-24T14:01:45;6.50;99.90
29341;DHT22;16337;59.536;13.468;2023-04-24T14:04:11;6.50;99.90
29341;DHT22;16337;59.536;13.468;2023-04-24T14:06:37;6.50;99.90
29341;DHT22;16337;59.536;13.468;2023-04-24T14:09:03;6.40;99.90
29341;DHT22;16337;59.536;13.468;2023-04-24T14:11:29;6.40;99.90
29341;DHT22;16337;59.536;13.468;2023-04-24T14:13:55;6.40;99.90
29341;DHT22;16337;59.536;13.468;2023-04-24T14:16:22;6.40;99.90
29341;DHT22;16337;59.536;13.468;2023-04-24T14:18:47;6.40;99.90
29341;DHT22;16337;59.536;13.468;2023-04-24T14:21:13;6.40;99.90
29341;DHT22;16337;59.536;13.468;2023-04-24T14:23:39;6.40;99.90
29341;DHT22;16337;59.536;13.468;2023-04-24T14:26:05;6.40;99.90
29341;DHT22;16337;59.536;13.468;2023-04-24T14:28:30;6.40;99.90
29341;DHT22;16337;59.536;13.468;2023-04-24T14:30:56;6.50;99.90
29341;DHT22;16337;59.536;13.468;2023-04-24T14:33:22;6.60;99.90
29341;DHT22;16337;59.536;13.468;2023-04-24T14:35:48;6.60;99.90
29341;DHT22;16337;59.536;13.468;2023-04-24T14:38:14;6.70;99.90
29341;DHT22;16337;59.536;13.468;2023-04-24T14:40:41;6.80;99.90
29341;DHT22;16337;59.536;13.468;2023-04-24T14:43:06;6.80;99.90
29341;DHT22;16337;59.536;13.468;2023-04-24T14:45:32;6.90;99.90
29341;DHT22;16337;59.536;13.468;2023-04-24T14:47:58;7.10;99.90
29341;DHT22;16337;59.536;13.468;2023-04-24T14:50:24;7.40;99.90
29341;DHT22;16337;59.536;13.468;2023-04-24T14:52:56;7.50;99.90
29341;DHT22;16337;59.536;13.468;2023-04-24T14:55:23;7.50;99.90
29341;DHT22;16337;59.536;13.468;2023-04-24T14:57:49;7.40;99.90
29341;DHT22;16337;59.536;13.468;2023-04-24T15:00:17;7.30;99.90
29341;DHT22;16337;59.536;13.468;2023-04-24T15:02:43;7.20;99.90
29341;DHT22;16337;59.536;13.468;2023-04-24T15:05:10;7.20;99.90
29341;DHT22;16337;59.536;13.468;2023-04-24T15:07:36;7.10;99.90
29341;DHT22;16337;59.536;13.468;2023-04-24T15:10:03;7.10;99.90
29341;DHT22;16337;59.536;13.468;2023-04-24T15:12:29;7.10;99.90
29341;DHT22;16337;59.536;13.468;2023-04-24T15:14:55;7.00;99.90
29341;DHT22;16337;59.536;13.468;2023-04-24T15:17:21;7.00;99.90
29341;DHT22;16337;59.536;13.468;2023-04-24T15:19:46;7.00;99.90
29341;DHT22;16337;59.536;13.468;2023-04-24T15:22:13;7.00;99.90
29341;DHT22;16337;59.536;13.468;2023-04-24T15:24:39;7.20;99.90
29341;DHT22;16337;59.536;13.468;2023-04-24T15:27:05;7.20;99.90
29341;DHT22;16337;59.536;13.468;2023-04-24T15:29:31;7.30;99.90
29341;DHT22;16337;59.536;13.468;2023-04-24T15:31:56;7.20;99.90
29341;DHT22;16337;59.536;13.468;2023-04-24T15:34:22;7.40;99.90
29341;DHT22;16337;59.536;13.468;2023-04-24T15:36:48;7.30;99.90
29341;DHT22;16337;59.536;13.468;2023-04-24T15:39:14;7.30;99.90
29341;DHT22;16337;59.536;13.468;2023-04-24T15:41:40;7.30;99.90
29341;DHT22;16337;59.536;13.468;2023-04-24T15:44:06;7.30;99.90
29341;DHT22;16337;59.536;13.468;2023-04-24T15:46:34;7.30;99.90
29341;DHT22;16337;59.536;13.468;2023-04-24T15:49:00;7.30;99.90
29341;DHT22;16337;59.536;13.468;2023-04-24T15:51:26;7.30;99.90